Downstream station:
SHEF ID: ENWK1 CROOKED C NR ENGLEWOOD, KS
STATION TYPE:
Regulating: Stage = 6.50, Flow = 243
PRECIP STAGE RIV-FLOW BAT-LOAD
in ft cfs volt
Ccp-Rev Ccp-Rev Ccp-Rev Ccp-Rev
(US/Central)
01/10 00:00 0.00 2.42 3 12.83
01/10 01:00 0.00 2.43 3 12.77
01/10 02:00 0.00 2.47 4 12.77
01/10 03:00 0.00 2.62 6 12.71
01/10 04:00 0.00 2.67 7 12.71
01/10 05:00 0.00 2.70 7 12.65
01/10 06:00 0.00 2.74 8 12.65
01/10 07:00 0.00 2.78 9 12.60
01/10 08:00 0.00 2.81 9 12.54
01/10 09:00 0.00 2.85 10 13.94
01/10 10:00 0.00 2.85 10 14.82
01/10 11:00 0.00 2.52 5 14.65
01/10 12:00 0.00 2.35 3 14.47
01/10 13:00 0.00 2.34 2 14.24
01/10 14:00 0.00 2.33 2 14.12
01/10 15:00 0.00 2.37 3 14.06
01/10 16:00 0.00 2.44 4 14.00
01/10 17:00 0.00 2.46 4 13.88
01/10 18:00 0.00 2.45 4 13.65
01/10 19:00 0.00 2.45 4 13.18
01/10 20:00 0.00 2.45 4 13.00
01/10 21:00 0.00 2.45 4 12.95
01/10 22:00 0.00 2.44 4 12.89
01/10 23:00 ---- ---- ---- ----